Time;durP1;ratioP1;P1;durP2;ratioP2;P2;SDS_P1;SDS_P2;PMS_P1;PMS_P2;Temp;Humidity;BMP_temperature;BMP_pressure;BME280_temperature;BME280_humidity;BME280_pressure;Samples;Min_cycle;Max_cycle;Signal;HPM_P1;HPM_P2
2023/09/06 00:00:12;;;;;;;1.73;1.50;;;20.20;99.90;;;20.69;100.00;101306.41;5200253;28;20049;-52
2023/09/06 00:02:48;;;;;;;2.08;1.40;;;20.20;99.90;;;20.64;100.00;101307.28;5205150;28;20099;-52
2023/09/06 00:05:21;;;;;;;2.00;1.30;;;20.10;99.90;;;20.56;100.00;101307.25;5202765;28;20050;-52
2023/09/06 00:07:53;;;;;;;3.22;1.42;;;20.00;99.90;;;20.49;100.00;101308.13;5204384;28;20049;-52
2023/09/06 00:10:26;;;;;;;2.65;1.50;;;20.00;99.90;;;20.42;100.00;101311.63;5203785;28;20037;-54
2023/09/06 00:12:59;;;;;;;2.63;1.75;;;19.90;99.90;;;20.33;100.00;101299.22;5203291;28;20611;-52
2023/09/06 00:15:31;;;;;;;2.00;1.48;;;19.80;99.90;;;20.26;100.00;101300.97;5216269;28;20076;-53
2023/09/06 00:18:07;;;;;;;1.75;1.42;;;19.80;99.90;;;20.21;100.00;101305.38;5200011;28;20049;-53
2023/09/06 00:20:39;;;;;;;1.45;1.30;;;19.70;99.90;;;20.16;100.00;101300.94;5191194;28;20525;-52
2023/09/06 00:23:13;;;;;;;2.13;1.55;;;19.60;99.90;;;20.11;100.00;101308.84;5200054;28;20150;-53
2023/09/06 00:25:47;;;;;;;2.63;1.45;;;19.60;99.90;;;20.07;100.00;101307.06;5200116;28;20046;-52
2023/09/06 00:28:20;;;;;;;1.73;1.20;;;19.60;99.90;;;20.04;100.00;101307.06;5218958;28;20046;-52
2023/09/06 00:30:56;;;;;;;1.90;1.45;;;19.50;99.90;;;20.01;100.00;101307.03;5199681;28;20060;-52
2023/09/06 00:33:35;;;;;;;1.95;1.55;;;19.50;99.90;;;19.99;100.00;101308.81;5219085;28;20041;-52
2023/09/06 00:36:08;;;;;;;2.28;1.45;;;19.50;99.90;;;19.96;100.00;101311.44;5203386;28;20148;-53
2023/09/06 00:38:40;;;;;;;1.95;1.60;;;19.40;99.90;;;19.91;100.00;101310.53;5203916;28;20497;-52
2023/09/06 00:41:12;;;;;;;1.83;1.50;;;19.40;99.90;;;19.86;100.00;101310.50;5204685;28;20076;-52
2023/09/06 00:43:46;;;;;;;1.70;1.60;;;19.40;99.90;;;19.81;100.00;101308.72;5203571;28;20140;-53
2023/09/06 00:46:20;;;;;;;1.50;1.40;;;19.30;99.90;;;19.77;100.00;101305.19;5202751;28;20049;-52
2023/09/06 00:48:55;;;;;;;;;;;19.30;99.90;;;19.74;100.00;101308.69;5198625;28;20062;-53
2023/09/06 00:51:32;;;;;;;1.77;1.50;;;19.20;99.90;;;19.70;100.00;101306.91;5201501;28;19921;-54
2023/09/06 00:54:05;;;;;;;2.10;1.80;;;19.20;99.90;;;19.65;100.00;101300.72;5202864;28;20501;-52
2023/09/06 00:56:39;;;;;;;1.73;1.50;;;19.10;99.90;;;19.59;100.00;101300.66;5199204;28;20052;-53
2023/09/06 00:59:12;;;;;;;2.00;1.63;;;19.10;99.90;;;19.55;100.00;101306.78;5216556;28;20415;-51
2023/09/06 01:01:46;;;;;;;1.80;1.60;;;19.10;99.90;;;19.51;100.00;101307.66;5198057;28;20503;-52
2023/09/06 01:04:20;;;;;;;2.53;1.63;;;19.00;99.90;;;19.47;100.00;101311.13;5217278;28;20046;-51
2023/09/06 01:06:57;;;;;;;2.97;1.70;;;19.00;99.90;;;19.43;100.00;101311.97;5202699;28;20052;-53
2023/09/06 01:09:33;;;;;;;1.88;1.50;;;18.90;99.90;;;19.39;100.00;101310.19;5202076;28;20099;-51
2023/09/06 01:12:09;;;;;;;1.35;1.20;;;18.90;99.90;;;19.37;100.00;101310.19;5198571;28;20050;-52
2023/09/06 01:14:42;;;;;;;1.65;1.20;;;18.90;99.90;;;19.35;100.00;101311.03;5202684;28;20502;-52
2023/09/06 01:17:18;;;;;;;2.25;1.52;;;18.90;99.90;;;19.33;100.00;101318.09;5202254;28;20057;-54
2023/09/06 01:19:58;;;;;;;2.10;1.23;;;18.80;99.90;;;19.28;100.00;101319.81;5199072;28;20065;-53
2023/09/06 01:22:39;;;;;;;3.08;1.50;;;18.80;99.90;;;19.22;100.00;101316.22;5217743;28;20053;-56
2023/09/06 01:25:14;;;;;;;2.80;1.60;;;18.80;99.90;;;19.18;100.00;101319.75;5199442;28;20045;-53
2023/09/06 01:27:49;;;;;;;2.58;1.40;;;18.70;99.90;;;19.15;100.00;101318.81;5198437;28;20045;-52
2023/09/06 01:30:21;;;;;;;1.80;1.50;;;18.70;99.90;;;19.11;100.00;101319.69;5216865;28;20045;-53
2023/09/06 01:32:53;;;;;;;1.85;1.30;;;18.60;99.90;;;19.08;100.00;101314.38;5187059;28;20041;-54
2023/09/06 01:35:29;;;;;;;3.00;1.60;;;18.60;99.90;;;19.05;100.00;101328.44;5200841;28;20060;-52
2023/09/06 01:38:02;;;;;;;1.60;1.45;;;18.60;99.90;;;19.01;100.00;101331.03;5202234;28;20065;-53
2023/09/06 01:40:36;;;;;;;1.50;1.38;;;18.60;99.90;;;18.97;100.00;101332.75;5201743;28;20060;-51
2023/09/06 01:43:09;;;;;;;2.78;1.42;;;18.50;99.90;;;18.92;100.00;101338.03;5201804;28;20465;-53
2023/09/06 01:45:47;;;;;;;1.85;1.60;;;18.50;99.90;;;18.86;100.00;101329.16;5198547;28;20267;-53
2023/09/06 01:48:21;;;;;;;3.25;1.30;;;18.40;99.90;;;18.82;100.00;101336.16;5216808;28;20481;-52
2023/09/06 01:50:55;;;;;;;1.88;1.50;;;18.40;99.90;;;18.79;100.00;101322.94;5187280;28;20643;-52
2023/09/06 01:53:29;;;;;;;2.80;1.75;;;18.30;99.90;;;18.76;100.00;101322.88;5200426;28;20080;-53
2023/09/06 01:56:07;;;;;;;;;;;18.30;99.90;;;18.73;100.00;101330.78;5203670;28;20068;-53
2023/09/06 01:58:41;;;;;;;1.63;1.40;;;18.30;99.90;;;18.69;100.00;101327.22;5194701;28;19971;-52
2023/09/06 02:01:14;;;;;;;1.80;1.55;;;18.30;99.90;;;18.66;100.00;101328.94;5198284;28;20045;-53
2023/09/06 02:03:46;;;;;;;2.03;1.30;;;18.20;99.90;;;18.61;100.00;101325.34;5201913;28;20402;-52
2023/09/06 02:06:19;;;;;;;2.47;1.70;;;18.20;99.90;;;18.57;100.00;101324.41;5201505;28;20045;-52
2023/09/06 02:08:52;;;;;;;1.70;1.40;;;18.10;99.90;;;18.53;100.00;101319.13;5201767;28;20107;-53
2023/09/06 02:11:27;;;;;;;2.20;1.50;;;18.10;99.90;;;18.51;100.00;101321.72;5199814;28;20049;-53
2023/09/06 02:13:59;;;;;;;1.95;1.60;;;18.10;99.90;;;18.50;100.00;101322.59;5198025;28;20046;-53
2023/09/06 02:16:31;;;;;;;1.83;1.50;;;18.00;99.90;;;18.48;100.00;101329.63;5217151;28;20099;-52
2023/09/06 02:19:06;;;;;;;1.77;1.60;;;18.00;99.90;;;18.46;100.00;101338.41;5197922;28;20050;-52
2023/09/06 02:21:41;;;;;;;2.05;1.50;;;18.00;99.90;;;18.43;100.00;101336.59;5201825;28;20073;-52
2023/09/06 02:24:14;;;;;;;1.80;1.50;;;18.00;99.90;;;18.40;100.00;101339.22;5201016;28;20141;-52
2023/09/06 02:26:48;;;;;;;2.22;1.20;;;18.00;99.90;;;18.40;100.00;101336.56;5203053;28;20053;-52
2023/09/06 02:29:20;;;;;;;2.17;1.30;;;18.00;99.90;;;18.37;100.00;101329.47;5201033;28;20060;-52
2023/09/06 02:31:53;;;;;;;2.13;1.65;;;18.00;99.90;;;18.36;100.00;101325.06;5201537;28;20045;-54
2023/09/06 02:34:25;;;;;;;1.92;1.33;;;17.90;99.90;;;18.33;100.00;101330.34;5199502;28;20038;-54
2023/09/06 02:36:58;;;;;;;1.58;1.27;;;17.90;99.90;;;18.31;100.00;101331.16;5201777;28;20053;-53
2023/09/06 02:39:30;;;;;;;1.70;1.48;;;17.90;99.90;;;18.28;100.00;101329.38;5200497;28;20141;-52
2023/09/06 02:42:04;;;;;;;2.83;1.48;;;17.90;99.90;;;18.25;100.00;101323.16;5201255;28;20115;-53
2023/09/06 02:44:36;;;;;;;1.70;1.38;;;17.80;99.90;;;18.24;100.00;101329.31;5200933;28;20050;-53
2023/09/06 02:47:11;;;;;;;2.55;1.45;;;17.80;99.90;;;18.21;100.00;101334.59;5201328;28;20049;-53
2023/09/06 02:49:54;;;;;;;2.20;1.48;;;17.80;99.90;;;18.19;100.00;101331.91;5194645;28;20042;-53
2023/09/06 02:52:30;;;;;;;1.92;1.50;;;17.70;99.90;;;18.15;100.00;101336.28;5201362;28;20056;-52
2023/09/06 02:55:05;;;;;;;1.58;1.30;;;17.70;99.90;;;18.15;100.00;101335.38;5205638;28;20100;-52
2023/09/06 02:57:40;;;;;;;1.70;1.60;;;17.70;99.90;;;18.13;100.00;101330.09;5204907;28;20049;-53
2023/09/06 03:00:24;;;;;;;1.80;1.70;;;17.70;99.90;;;18.11;100.00;101334.44;5201604;28;20054;-51
2023/09/06 03:02:59;;;;;;;2.03;1.48;;;17.70;99.90;;;18.08;100.00;101344.97;5205102;28;20053;-53
2023/09/06 03:05:32;;;;;;;2.08;1.63;;;17.70;99.90;;;18.07;100.00;101337.94;5204976;28;20482;-53
2023/09/06 03:08:06;;;;;;;2.85;1.50;;;17.60;99.90;;;18.04;100.00;101335.25;5201141;28;20058;-52
2023/09/06 03:10:41;;;;;;;1.85;1.50;;;17.60;99.90;;;18.01;100.00;101332.56;5221313;28;20037;-52
2023/09/06 03:13:16;;;;;;;2.50;1.83;;;17.60;99.90;;;18.01;100.00;101342.25;5204191;28;20060;-53
2023/09/06 03:15:51;;;;;;;2.28;1.67;;;17.60;99.90;;;17.98;100.00;101337.78;5200720;28;20592;-53
2023/09/06 03:18:24;;;;;;;2.10;1.60;;;17.60;99.90;;;17.96;100.00;101342.19;5216838;28;20050;-52
2023/09/06 03:21:01;;;;;;;1.75;1.42;;;17.60;99.90;;;17.95;100.00;101347.44;5204820;28;20049;-53
2023/09/06 03:23:34;;;;;;;2.08;1.38;;;17.50;99.90;;;17.91;100.00;101346.50;5203513;28;20137;-53
2023/09/06 03:26:09;;;;;;;3.28;1.70;;;17.50;99.90;;;17.90;100.00;101339.47;5201342;28;20046;-52
2023/09/06 03:28:46;;;;;;;2.47;1.60;;;17.50;99.90;;;17.89;100.00;101345.59;5196773;28;20041;-52
2023/09/06 03:31:24;;;;;;;2.22;1.65;;;17.50;99.90;;;17.86;100.00;101353.44;5201745;28;20049;-52
2023/09/06 03:33:58;;;;;;;1.77;1.48;;;17.50;99.90;;;17.84;100.00;101357.84;5204835;28;20099;-53
2023/09/06 03:36:30;;;;;;;1.70;1.50;;;17.40;99.90;;;17.82;100.00;101351.66;5204177;28;20475;-52
2023/09/06 03:39:05;;;;;;;2.28;1.45;;;17.40;99.90;;;17.79;100.00;101355.13;5200239;28;20041;-52
2023/09/06 03:41:42;;;;;;;1.50;1.40;;;17.40;99.90;;;17.77;100.00;101354.22;5220036;28;20490;-53
2023/09/06 03:44:17;;;;;;;2.33;1.65;;;17.40;99.90;;;17.75;100.00;101355.06;5200243;28;20473;-53
2023/09/06 03:46:51;;;;;;;2.67;1.73;;;17.30;99.90;;;17.72;100.00;101360.28;5204505;28;20053;-53
2023/09/06 03:49:24;;;;;;;2.58;1.50;;;17.30;99.90;;;17.70;100.00;101357.59;5203694;28;20517;-52
2023/09/06 03:51:57;;;;;;;1.50;1.20;;;17.30;99.90;;;17.68;100.00;101359.34;5203718;28;20463;-55
2023/09/06 03:54:30;;;;;;;1.70;1.40;;;17.30;99.90;;;17.66;100.00;101360.16;5203875;28;20033;-51
2023/09/06 03:57:03;;;;;;;2.60;1.80;;;17.30;99.90;;;17.63;100.00;101356.63;5200523;28;20339;-52
2023/09/06 03:59:38;;;;;;;1.88;1.52;;;17.20;99.90;;;17.60;100.00;101367.16;5219721;28;20065;-52
2023/09/06 04:02:13;;;;;;;1.85;1.42;;;17.20;99.90;;;17.59;100.00;101360.06;5202742;28;20053;-54
2023/09/06 04:04:47;;;;;;;2.33;1.50;;;17.20;99.90;;;17.57;100.00;101361.81;5199784;28;20034;-53
2023/09/06 04:07:19;;;;;;;1.70;1.48;;;17.20;99.90;;;17.56;100.00;101364.44;5217380;28;20137;-53
2023/09/06 04:09:56;;;;;;;1.73;1.40;;;17.20;99.90;;;17.54;100.00;101363.50;5200062;28;20050;-52
2023/09/06 04:12:28;;;;;;;1.55;1.45;;;17.10;99.90;;;17.56;100.00;101372.34;5215521;28;20410;-52
2023/09/06 04:15:03;;;;;;;2.63;1.60;;;17.10;99.90;;;17.60;100.00;101364.50;5205257;28;20041;-52
2023/09/06 04:17:37;;;;;;;;;;;17.20;99.90;;;17.63;100.00;101366.28;5188154;28;20047;-53
2023/09/06 04:20:18;;;;;;;1.60;1.50;;;17.20;99.90;;;17.67;100.00;101377.75;5199568;28;20006;-53
2023/09/06 04:22:51;;;;;;;1.90;1.70;;;17.20;99.90;;;17.69;100.00;101373.41;5195805;28;20453;-53
2023/09/06 04:25:24;;;;;;;1.70;1.42;;;17.30;99.90;;;17.71;100.00;101377.88;5195237;28;20095;-53
2023/09/06 04:27:57;;;;;;;2.10;1.63;;;17.30;99.90;;;17.76;100.00;101381.47;5203252;28;20037;-51
2023/09/06 04:30:32;;;;;;;;;;;17.30;99.90;;;17.80;100.00;101380.66;5201873;28;20061;-52
2023/09/06 04:33:07;;;;;;;1.85;1.45;;;17.40;99.90;;;17.86;100.00;101388.63;5198661;28;20025;-52
2023/09/06 04:35:43;;;;;;;1.50;1.00;;;17.40;99.90;;;17.88;100.00;101388.66;5219642;28;20399;-53
2023/09/06 04:38:18;;;;;;;2.03;1.65;;;17.50;99.90;;;17.87;100.00;101389.53;5199254;28;20530;-52
2023/09/06 04:40:52;;;;;;;1.50;1.40;;;17.50;99.90;;;17.83;100.00;101390.34;5198820;28;20048;-52
2023/09/06 04:43:25;;;;;;;1.73;1.45;;;17.40;99.90;;;17.80;100.00;101392.91;5216234;28;20045;-52
2023/09/06 04:46:08;;;;;;;;;;;17.40;99.90;;;17.74;100.00;101399.03;5203584;28;20052;-53
2023/09/06 04:48:47;;;;;;;2.08;1.30;;;17.30;99.90;;;17.70;100.00;101393.63;5203428;28;19921;-52
2023/09/06 04:51:19;;;;;;;1.90;1.70;;;17.30;99.90;;;17.69;100.00;101391.88;5199321;28;20499;-53
2023/09/06 04:53:52;;;;;;;1.55;1.35;;;17.30;99.90;;;17.66;100.00;101391.81;5202767;28;20056;-52
2023/09/06 04:56:31;;;;;;;2.03;1.25;;;17.30;99.90;;;17.66;100.00;101391.81;5202317;28;20732;-54
2023/09/06 04:59:07;;;;;;;1.95;1.50;;;17.20;99.90;;;17.71;100.00;101395.41;5203110;28;20053;-52
2023/09/06 05:01:41;;;;;;;2.33;1.50;;;17.30;99.90;;;17.73;100.00;101398.97;5201968;28;20037;-51
2023/09/06 05:04:14;;;;;;;1.77;1.42;;;17.30;99.90;;;17.76;100.00;101405.19;5202766;28;20136;-53
2023/09/06 05:06:48;;;;;;;2.33;1.55;;;17.30;99.90;;;17.78;100.00;101407.84;5194781;28;20096;-54
2023/09/06 05:09:21;;;;;;;3.15;1.77;;;17.40;99.90;;;17.78;100.00;101402.56;5202431;28;20044;-53
2023/09/06 05:11:55;;;;;;;2.53;1.50;;;17.40;99.90;;;17.78;100.00;101407.84;5198080;28;20042;-52
2023/09/06 05:14:30;;;;;;;2.47;1.55;;;17.40;99.90;;;17.81;100.00;101405.28;5216070;28;20045;-52
2023/09/06 05:17:04;;;;;;;1.52;1.20;;;17.40;99.90;;;17.83;100.00;101411.44;5201608;28;20392;-53
2023/09/06 05:19:37;;;;;;;2.05;1.58;;;17.40;99.90;;;17.86;100.00;101401.81;5200926;28;20046;-52
2023/09/06 05:22:10;;;;;;;1.98;1.52;;;17.50;99.90;;;17.87;100.00;101413.28;5201935;28;20041;-53
2023/09/06 05:24:43;;;;;;;2.65;1.75;;;17.50;99.90;;;17.86;100.00;101414.09;5201456;28;20045;-54
2023/09/06 05:27:17;;;;;;;1.52;1.42;;;17.40;99.90;;;17.84;100.00;101406.19;5202102;28;20447;-54
2023/09/06 05:29:55;;;;;;;2.33;1.65;;;17.50;99.90;;;17.83;100.00;101416.72;5203228;28;20041;-54
2023/09/06 05:32:30;;;;;;;1.75;1.60;;;17.40;99.90;;;17.80;100.00;101414.94;5201140;28;20563;-54
2023/09/06 05:35:03;;;;;;;3.03;1.70;;;17.40;99.90;;;17.77;100.00;101417.50;5187981;28;20137;-54
2023/09/06 05:37:40;;;;;;;1.52;1.42;;;17.40;99.90;;;17.73;100.00;101415.66;5200371;28;20518;-53
2023/09/06 05:40:16;;;;;;;2.47;1.50;;;17.40;99.90;;;17.72;100.00;101413.91;5202039;28;20038;-55
2023/09/06 05:42:48;;;;;;;3.10;1.92;;;17.30;99.90;;;17.69;100.00;101419.13;5197835;28;20138;-55
2023/09/06 05:45:22;;;;;;;2.35;1.70;;;17.30;99.90;;;17.70;100.00;101414.72;5198169;28;20387;-53
2023/09/06 05:47:57;;;;;;;1.52;1.40;;;17.30;99.90;;;17.70;100.00;101427.91;5201843;28;20057;-53
2023/09/06 05:50:32;;;;;;;2.05;1.60;;;17.30;99.90;;;17.73;100.00;101425.34;5199462;28;20045;-52
2023/09/06 05:53:05;;;;;;;1.65;1.52;;;17.30;99.90;;;17.84;100.00;101422.00;5197269;28;20050;-51
2023/09/06 05:55:38;;;;;;;2.15;1.25;;;17.40;99.90;;;18.20;100.00;101426.06;5208913;28;20225;-50
2023/09/06 05:58:11;;;;;;;2.78;1.55;;;17.80;99.90;;;18.47;100.00;101430.81;5201715;28;20056;-55
2023/09/06 06:00:44;;;;;;;2.92;1.50;;;18.00;99.90;;;18.53;100.00;101430.88;5200773;28;20055;-53
2023/09/06 06:03:19;;;;;;;1.52;1.40;;;18.10;99.90;;;18.54;100.00;101430.00;5200945;28;20037;-52
2023/09/06 06:05:51;;;;;;;1.98;1.60;;;18.20;99.90;;;18.52;100.00;101434.38;5193763;28;20521;-53
2023/09/06 06:08:24;;;;;;;2.03;1.55;;;18.20;99.90;;;18.56;100.00;101437.94;5200781;28;20041;-52
2023/09/06 06:10:57;;;;;;;2.00;1.60;;;18.20;99.90;;;18.62;100.00;101436.25;5200957;28;20041;-53
2023/09/06 06:13:29;;;;;;;2.05;1.52;;;18.20;99.90;;;18.74;100.00;101432.03;5200590;28;20100;-53
2023/09/06 06:16:02;;;;;;;2.22;1.70;;;18.30;99.90;;;18.88;100.00;101431.31;5201391;28;20037;-54
2023/09/06 06:18:36;;;;;;;2.97;1.48;;;18.40;99.90;;;19.12;100.00;101430.69;5201047;28;20375;-54
2023/09/06 06:21:10;;;;;;;3.35;2.13;;;18.60;99.90;;;19.50;100.00;101430.16;5189031;28;20399;-54
2023/09/06 06:23:46;;;;;;;4.18;2.10;;;18.90;99.90;;;20.09;100.00;101437.66;5215687;28;20045;-53
2023/09/06 06:26:21;;;;;;;3.83;2.00;;;19.30;99.90;;;20.73;100.00;101445.03;5200923;28;20058;-55
2023/09/06 06:28:55;;;;;;;2.47;1.88;;;19.90;99.90;;;21.39;100.00;101449.63;5193513;28;20528;-54
2023/09/06 06:31:27;;;;;;;2.25;1.70;;;20.50;99.90;;;22.01;100.00;101450.47;5200047;28;20041;-52
2023/09/06 06:34:01;;;;;;;3.97;1.90;;;21.10;99.90;;;22.50;100.00;101445.06;5196912;28;20112;-53
2023/09/06 06:36:33;;;;;;;1.67;1.50;;;21.50;99.90;;;23.07;100.00;101452.75;5215072;28;20052;-53
2023/09/06 06:39:06;;;;;;;3.40;1.70;;;22.10;99.90;;;23.54;100.00;101445.34;5200999;28;20076;-53
2023/09/06 06:41:38;;;;;;;2.88;1.88;;;22.60;99.90;;;23.94;97.95;101460.09;5198423;28;20089;-53
2023/09/06 06:44:11;;;;;;;3.65;1.90;;;23.00;99.90;;;24.28;96.16;101455.28;5196812;28;20046;-55
2023/09/06 06:46:43;;;;;;;2.75;1.60;;;23.30;99.90;;;24.55;94.25;101457.66;5216091;28;20041;-55
2023/09/06 06:49:17;;;;;;;2.78;1.73;;;23.60;99.90;;;24.79;92.50;101461.78;5200763;28;20140;-55
2023/09/06 06:51:49;;;;;;;3.72;1.65;;;23.90;99.90;;;25.03;91.22;101470.34;5199819;28;20497;-56
2023/09/06 06:54:21;;;;;;;2.45;1.83;;;24.10;99.80;;;25.30;89.67;101461.97;5196231;28;20411;-54
2023/09/06 06:56:54;;;;;;;2.28;1.65;;;24.40;99.20;;;25.60;88.83;101476.59;5200850;28;20052;-55
2023/09/06 06:59:27;;;;;;;2.55;1.63;;;24.70;98.70;;;25.78;87.33;101463.88;5200096;28;20034;-54
2023/09/06 07:01:59;;;;;;;2.72;1.65;;;24.90;98.00;;;25.84;86.63;101469.13;5196539;28;20557;-53
2023/09/06 07:04:33;;;;;;;3.13;1.80;;;25.00;97.40;;;26.07;85.98;101472.25;5214144;28;20576;-53
2023/09/06 07:07:05;;;;;;;3.05;1.92;;;25.20;97.20;;;26.28;85.59;101476.31;5196702;28;20481;-53
2023/09/06 07:09:38;;;;;;;2.92;1.58;;;25.40;97.00;;;26.31;84.16;101470.91;5214692;28;20490;-54
2023/09/06 07:12:10;;;;;;;2.53;1.83;;;25.50;96.10;;;26.32;84.13;101461.97;5196030;28;20053;-54
2023/09/06 07:14:43;;;;;;;2.35;1.70;;;25.60;95.90;;;26.37;83.34;101457.41;5215680;28;20045;-54
2023/09/06 07:17:15;;;;;;;2.58;1.77;;;25.60;95.50;;;26.50;83.13;101455.41;5200599;28;20099;-55
2023/09/06 07:19:49;;;;;;;3.30;1.80;;;25.70;95.30;;;26.67;81.96;101455.03;5199745;28;20037;-54
2023/09/06 07:22:22;;;;;;;2.20;1.70;;;25.90;94.70;;;26.85;82.27;101461.78;5195934;28;20447;-55
2023/09/06 07:24:54;;;;;;;3.22;1.85;;;26.10;94.70;;;27.11;81.49;101464.78;5192557;28;20057;-54
2023/09/06 07:27:27;;;;;;;2.65;2.10;;;26.30;94.60;;;27.19;81.02;101468.19;5200257;28;20045;-54
2023/09/06 07:29:59;;;;;;;2.22;1.65;;;26.40;94.10;;;27.18;80.95;101454.81;5200512;28;20056;-55
2023/09/06 07:32:31;;;;;;;4.50;1.88;;;26.40;94.00;;;27.29;80.97;101463.47;5196777;28;20050;-53
2023/09/06 07:35:07;;;;;;;2.35;1.63;;;26.50;93.80;;;27.57;80.77;101464.56;5200492;28;20065;-53
2023/09/06 07:37:41;;;;;;;3.50;2.10;;;26.70;93.80;;;27.79;79.87;101461.38;5200174;28;20053;-55
2023/09/06 07:40:16;;;;;;;4.63;2.00;;;26.90;93.30;;;27.90;79.00;101464.63;5197909;28;20096;-55
2023/09/06 07:42:49;;;;;;;2.92;1.90;;;27.00;92.80;;;28.02;78.08;101471.47;5219021;28;20317;-53
2023/09/06 07:45:21;;;;;;;5.60;2.22;;;27.10;92.30;;;28.21;77.66;101466.50;5204210;28;20144;-56
2023/09/06 07:47:54;;;;;;;2.15;1.83;;;27.30;92.10;;;28.41;77.78;101472.19;5203964;28;20155;-54
2023/09/06 07:50:31;;;;;;;2.20;1.77;;;27.50;92.00;;;28.61;77.54;101472.50;5203216;28;20049;-54
2023/09/06 07:53:04;;;;;;;2.70;1.70;;;27.60;91.90;;;28.77;76.38;101472.06;5199544;28;20042;-55
2023/09/06 07:55:37;;;;;;;3.83;2.00;;;27.70;91.30;;;28.93;75.73;101476.94;5217440;28;20552;-54
2023/09/06 07:58:10;;;;;;;3.13;1.73;;;27.90;91.00;;;29.10;74.77;101475.53;5199855;28;20148;-55
2023/09/06 08:00:43;;;;;;;2.85;1.75;;;28.00;90.60;;;29.19;74.38;101476.13;5218228;28;20611;-54
2023/09/06 08:03:15;;;;;;;3.00;1.80;;;28.10;90.20;;;29.40;73.71;101477.22;5203073;28;20041;-55
2023/09/06 08:05:49;;;;;;;3.60;2.28;;;28.30;90.00;;;29.64;72.64;101472.00;5202003;28;20056;-55
2023/09/06 08:08:21;;;;;;;1.88;1.70;;;28.40;88.90;;;29.90;72.13;101471.09;5203385;28;20033;-54
2023/09/06 08:10:53;;;;;;;2.67;1.70;;;28.60;88.40;;;30.18;71.55;101473.72;5202812;28;20402;-54
2023/09/06 08:13:26;;;;;;;3.60;2.00;;;28.80;87.70;;;30.45;70.81;101475.41;5198821;28;20061;-56
2023/09/06 08:16:00;;;;;;;4.28;2.25;;;28.90;86.90;;;30.75;69.19;101469.81;5207448;28;20038;-55
2023/09/06 08:18:35;;;;;;;2.33;1.83;;;29.10;85.50;;;31.16;68.05;101472.69;5199771;28;20503;-55
2023/09/06 08:21:09;;;;;;;4.18;1.90;;;29.30;84.60;;;31.52;66.52;101465.84;5198986;28;20042;-55
2023/09/06 08:23:41;;;;;;;4.03;1.60;;;29.50;83.20;;;31.66;65.09;101467.06;5217215;28;20049;-56
2023/09/06 08:26:14;;;;;;;3.08;2.00;;;29.60;81.00;;;32.16;64.93;101458.63;5203210;28;20034;-55
2023/09/06 08:28:46;;;;;;;3.88;1.80;;;29.70;81.40;;;32.87;62.96;101466.16;5201276;28;20474;-56
2023/09/06 08:31:19;;;;;;;2.33;1.88;;;30.10;81.10;;;33.72;60.97;101462.88;5203308;28;20041;-54
2023/09/06 08:33:51;;;;;;;2.88;1.77;;;30.60;79.00;;;34.79;57.82;101467.97;5201696;28;20052;-54
2023/09/06 08:36:28;;;;;;;4.07;2.03;;;31.40;76.90;;;35.78;56.37;101464.94;5203017;28;20113;-55
2023/09/06 08:39:00;;;;;;;3.45;1.65;;;32.20;75.30;;;36.64;53.73;101476.81;5202653;28;20418;-55
2023/09/06 08:41:33;;;;;;;4.18;1.90;;;33.10;72.20;;;37.03;51.69;101477.94;5198742;28;20042;-55
2023/09/06 08:44:07;;;;;;;3.53;1.95;;;33.60;68.40;;;37.40;50.79;101481.84;5199041;28;20046;-55
2023/09/06 08:46:41;;;;;;;;;;;34.10;66.80;;;37.68;49.96;101469.09;5217132;28;20118;-56
2023/09/06 08:49:14;;;;;;;3.90;1.88;;;34.40;65.00;;;37.84;48.76;101477.09;5198596;28;20057;-55
2023/09/06 08:51:48;;;;;;;;;;;34.70;63.20;;;37.50;48.47;101478.53;5200586;28;20057;-55
2023/09/06 08:54:21;;;;;;;3.47;2.00;;;34.60;61.70;;;37.43;49.36;101480.75;5202749;28;19932;-55
2023/09/06 08:56:53;;;;;;;;;;;34.60;62.30;;;37.54;49.19;101482.75;5202143;28;20038;-55
2023/09/06 08:59:27;;;;;;;2.65;1.92;;;34.80;62.10;;;37.54;48.70;101488.19;5195237;28;19921;-56
2023/09/06 09:02:00;;;;;;;3.33;1.95;;;34.80;61.30;;;37.08;49.15;101481.22;5198244;28;20050;-56
2023/09/06 09:04:33;;;;;;;3.50;1.88;;;34.70;61.00;;;36.93;49.61;101483.13;5190239;28;20058;-55
2023/09/06 09:07:06;;;;;;;6.75;2.88;;;34.60;61.20;;;36.31;49.27;101474.34;5202215;28;20449;-55
2023/09/06 09:10:00;;;;;;;3.50;2.17;;;34.40;60.00;;;35.22;49.35;101462.88;5201724;28;20139;-55
2023/09/06 09:12:37;;;;;;;4.10;2.55;;;33.80;59.20;;;34.43;51.52;101473.56;5192960;28;20046;-55
2023/09/06 09:15:10;;;;;;;3.58;2.33;;;33.20;60.70;;;33.79;53.33;101464.31;5198246;28;20066;-55
2023/09/06 09:17:43;;;;;;;3.65;1.88;;;32.80;61.70;;;33.32;54.00;101475.66;5213527;28;20419;-54
2023/09/06 09:20:17;;;;;;;2.95;2.00;;;32.40;62.20;;;32.95;54.81;101476.59;5202074;28;20046;-54
2023/09/06 09:22:51;;;;;;;2.42;1.95;;;32.00;63.00;;;32.81;56.55;101471.81;5200472;28;20033;-54
2023/09/06 09:25:24;;;;;;;4.22;2.10;;;31.90;64.30;;;32.60;56.14;101471.00;5201906;28;20478;-54
2023/09/06 09:27:57;;;;;;;3.22;2.10;;;31.70;64.00;;;32.36;56.22;101474.81;5201712;28;20498;-54
2023/09/06 09:30:30;;;;;;;5.18;2.20;;;31.50;64.00;;;32.18;56.91;101476.50;5202034;28;20158;-55
2023/09/06 09:33:04;;;;;;;4.28;2.08;;;31.30;64.80;;;32.12;56.92;101466.84;5201208;28;20431;-54
2023/09/06 09:35:37;;;;;;;3.00;2.10;;;31.20;64.80;;;32.07;57.69;101466.16;5198075;28;20049;-53
2023/09/06 09:38:12;;;;;;;2.63;1.90;;;31.20;65.50;;;32.00;56.73;101469.22;5198038;28;20045;-54
2023/09/06 09:40:44;;;;;;;3.65;2.20;;;31.10;64.60;;;31.79;56.50;101471.03;5215423;28;20068;-54
2023/09/06 09:43:18;;;;;;;3.55;1.90;;;30.90;64.50;;;31.66;56.08;101459.00;5201209;28;20069;-54
2023/09/06 09:45:50;;;;;;;2.55;1.85;;;30.80;63.90;;;31.58;56.67;101462.88;5201159;28;20046;-54
2023/09/06 09:48:30;;;;;;;3.05;2.10;;;30.70;64.40;;;31.60;57.32;101465.50;5197851;28;20073;-54
2023/09/06 09:51:04;;;;;;;4.10;2.00;;;30.70;65.20;;;31.43;56.58;101458.16;5218007;28;20049;-53
2023/09/06 09:53:40;;;;;;;4.57;2.35;;;30.60;64.50;;;31.42;57.29;101453.69;5201051;28;20049;-53
2023/09/06 09:56:14;;;;;;;4.05;2.40;;;30.50;64.90;;;31.46;58.09;101457.13;5201885;28;20100;-54
2023/09/06 09:58:49;;;;;;;3.42;2.33;;;30.50;65.60;;;31.57;58.23;101447.66;5198705;28;20057;-54
2023/09/06 10:01:22;;;;;;;3.38;2.30;;;30.60;66.00;;;31.74;57.52;101448.75;5197162;28;20411;-55
2023/09/06 10:03:57;;;;;;;3.63;2.13;;;30.70;65.70;;;31.73;56.32;101450.56;5215946;28;20767;-54
2023/09/06 10:06:31;;;;;;;4.43;2.00;;;30.70;64.40;;;31.76;54.86;101454.97;5201344;28;20072;-52
2023/09/06 10:09:12;;;;;;;3.88;2.47;;;30.80;63.00;;;31.59;54.44;101447.59;5200926;28;20048;-54
2023/09/06 10:11:44;;;;;;;3.45;2.20;;;30.70;62.60;;;31.58;55.07;101446.72;5200774;28;20140;-53
2023/09/06 10:14:19;;;;;;;4.50;2.40;;;30.70;63.20;;;31.78;55.61;101442.28;5195943;28;20038;-54
2023/09/06 10:16:53;;;;;;;4.30;2.10;;;30.70;64.00;;;31.85;55.07;101444.69;5198725;28;20502;-54
2023/09/06 10:19:27;;;;;;;3.65;2.33;;;30.80;63.40;;;31.81;54.34;101443.06;5197071;28;20583;-54
2023/09/06 10:22:02;;;;;;;4.43;2.30;;;30.80;62.50;;;31.81;54.46;101447.56;5216407;28;20045;-54
2023/09/06 10:24:39;;;;;;;3.50;2.22;;;30.80;62.70;;;31.74;54.67;101446.94;5193587;28;20056;-55
2023/09/06 10:27:13;;;;;;;3.38;2.30;;;30.80;62.90;;;31.61;55.56;101440.31;5194023;28;20504;-55
2023/09/06 10:29:54;;;;;;;3.20;1.92;;;30.70;63.40;;;31.67;54.83;101442.75;5198183;28;20062;-54
2023/09/06 10:32:41;;;;;;;3.38;2.30;;;30.70;62.80;;;31.43;55.64;101442.00;5200605;28;20061;-54
2023/09/06 10:35:23;;;;;;;4.80;2.50;;;30.60;63.30;;;31.44;55.91;101437.47;5193981;28;20049;-54
2023/09/06 10:38:10;;;;;;;3.75;2.20;;;30.60;63.60;;;31.51;56.27;101429.06;5217246;28;20102;-53